sensor_id;sensor_type;location;lat;lon;timestamp;temperature;humidity
15765;DHT22;7983;50.744;7.086;2022-08-01T00:01:23;24.10;93.10
15765;DHT22;7983;50.744;7.086;2022-08-01T00:03:49;24.10;93.30
15765;DHT22;7983;50.744;7.086;2022-08-01T00:06:14;24.10;93.20
15765;DHT22;7983;50.744;7.086;2022-08-01T00:08:40;24.10;93.40
15765;DHT22;7983;50.744;7.086;2022-08-01T00:11:06;24.10;93.80
15765;DHT22;7983;50.744;7.086;2022-08-01T00:13:34;24.10;93.80
15765;DHT22;7983;50.744;7.086;2022-08-01T00:16:00;24.10;94.10
15765;DHT22;7983;50.744;7.086;2022-08-01T00:18:27;24.00;94.00
15765;DHT22;7983;50.744;7.086;2022-08-01T00:20:53;24.00;94.00
15765;DHT22;7983;50.744;7.086;2022-08-01T00:23:23;24.00;94.20
15765;DHT22;7983;50.744;7.086;2022-08-01T00:25:49;24.00;94.40
15765;DHT22;7983;50.744;7.086;2022-08-01T00:28:17;24.00;94.30
15765;DHT22;7983;50.744;7.086;2022-08-01T00:30:42;24.00;94.30
15765;DHT22;7983;50.744;7.086;2022-08-01T00:33:08;24.00;94.60
15765;DHT22;7983;50.744;7.086;2022-08-01T00:35:34;24.00;95.10
15765;DHT22;7983;50.744;7.086;2022-08-01T00:37:59;23.90;95.10
15765;DHT22;7983;50.744;7.086;2022-08-01T00:40:27;23.90;95.10
15765;DHT22;7983;50.744;7.086;2022-08-01T00:42:55;23.90;95.00
15765;DHT22;7983;50.744;7.086;2022-08-01T00:45:21;23.90;95.20
15765;DHT22;7983;50.744;7.086;2022-08-01T00:47:46;23.90;95.30
15765;DHT22;7983;50.744;7.086;2022-08-01T00:50:14;23.90;95.40
15765;DHT22;7983;50.744;7.086;2022-08-01T00:52:40;23.90;95.30
15765;DHT22;7983;50.744;7.086;2022-08-01T00:55:06;23.90;95.70
15765;DHT22;7983;50.744;7.086;2022-08-01T00:57:37;23.90;95.70
15765;DHT22;7983;50.744;7.086;2022-08-01T01:00:05;23.90;95.70
15765;DHT22;7983;50.744;7.086;2022-08-01T01:02:31;23.90;95.80
15765;DHT22;7983;50.744;7.086;2022-08-01T01:04:57;23.90;95.90
15765;DHT22;7983;50.744;7.086;2022-08-01T01:10:15;23.90;97.30
15765;DHT22;7983;50.744;7.086;2022-08-01T01:12:51;23.90;97.10
15765;DHT22;7983;50.744;7.086;2022-08-01T01:20:36;23.80;97.40
15765;DHT22;7983;50.744;7.086;2022-08-01T01:31:17;23.70;97.60
15765;DHT22;7983;50.744;7.086;2022-08-01T01:33:46;23.70;97.60
15765;DHT22;7983;50.744;7.086;2022-08-01T01:36:14;23.60;97.60
15765;DHT22;7983;50.744;7.086;2022-08-01T01:38:44;23.60;97.80
15765;DHT22;7983;50.744;7.086;2022-08-01T01:41:12;23.60;98.30
15765;DHT22;7983;50.744;7.086;2022-08-01T01:43:42;23.60;98.50
15765;DHT22;7983;50.744;7.086;2022-08-01T01:46:12;23.60;98.40
15765;DHT22;7983;50.744;7.086;2022-08-01T01:48:43;23.50;98.90
15765;DHT22;7983;50.744;7.086;2022-08-01T01:51:11;23.50;99.70
15765;DHT22;7983;50.744;7.086;2022-08-01T01:53:42;23.50;99.40
15765;DHT22;7983;50.744;7.086;2022-08-01T01:56:09;23.50;99.90
15765;DHT22;7983;50.744;7.086;2022-08-01T01:58:35;23.50;99.90
15765;DHT22;7983;50.744;7.086;2022-08-01T02:01:07;23.40;99.90
15765;DHT22;7983;50.744;7.086;2022-08-01T02:03:35;23.40;99.90
15765;DHT22;7983;50.744;7.086;2022-08-01T02:06:02;23.40;99.90
15765;DHT22;7983;50.744;7.086;2022-08-01T02:08:32;23.40;99.90
15765;DHT22;7983;50.744;7.086;2022-08-01T02:11:00;23.30;99.90
15765;DHT22;7983;50.744;7.086;2022-08-01T02:14:01;23.30;99.90
15765;DHT22;7983;50.744;7.086;2022-08-01T02:16:33;23.30;99.90
15765;DHT22;7983;50.744;7.086;2022-08-01T02:19:02;23.30;99.90
15765;DHT22;7983;50.744;7.086;2022-08-01T02:21:36;23.20;99.90
15765;DHT22;7983;50.744;7.086;2022-08-01T02:24:14;23.20;99.90
15765;DHT22;7983;50.744;7.086;2022-08-01T02:26:49;23.20;99.90
15765;DHT22;7983;50.744;7.086;2022-08-01T02:29:32;23.20;99.90
15765;DHT22;7983;50.744;7.086;2022-08-01T02:32:00;23.20;99.90
15765;DHT22;7983;50.744;7.086;2022-08-01T02:34:28;23.20;99.90
15765;DHT22;7983;50.744;7.086;2022-08-01T02:36:58;23.10;99.90
15765;DHT22;7983;50.744;7.086;2022-08-01T02:39:26;23.10;99.90
15765;DHT22;7983;50.744;7.086;2022-08-01T02:42:00;23.10;99.90
15765;DHT22;7983;50.744;7.086;2022-08-01T02:44:31;23.10;99.90
15765;DHT22;7983;50.744;7.086;2022-08-01T02:47:00;23.10;99.90
15765;DHT22;7983;50.744;7.086;2022-08-01T02:49:35;23.10;99.90
15765;DHT22;7983;50.744;7.086;2022-08-01T02:52:06;23.10;99.90
15765;DHT22;7983;50.744;7.086;2022-08-01T02:54:33;23.10;99.90
15765;DHT22;7983;50.744;7.086;2022-08-01T02:57:04;23.00;99.90
15765;DHT22;7983;50.744;7.086;2022-08-01T02:59:34;23.00;99.90
15765;DHT22;7983;50.744;7.086;2022-08-01T03:02:05;23.00;99.90
15765;DHT22;7983;50.744;7.086;2022-08-01T03:04:34;23.00;99.90
15765;DHT22;7983;50.744;7.086;2022-08-01T03:07:06;23.00;99.90
15765;DHT22;7983;50.744;7.086;2022-08-01T03:09:37;23.00;99.90
15765;DHT22;7983;50.744;7.086;2022-08-01T03:12:07;22.90;99.90
15765;DHT22;7983;50.744;7.086;2022-08-01T03:14:39;22.90;99.90
15765;DHT22;7983;50.744;7.086;2022-08-01T03:17:07;22.90;99.90
15765;DHT22;7983;50.744;7.086;2022-08-01T03:19:36;22.90;99.90
15765;DHT22;7983;50.744;7.086;2022-08-01T03:22:06;22.90;99.90
15765;DHT22;7983;50.744;7.086;2022-08-01T03:24:33;22.90;99.90
15765;DHT22;7983;50.744;7.086;2022-08-01T03:27:02;22.90;99.90
15765;DHT22;7983;50.744;7.086;2022-08-01T03:29:29;22.90;99.90
15765;DHT22;7983;50.744;7.086;2022-08-01T03:31:58;22.90;99.90
15765;DHT22;7983;50.744;7.086;2022-08-01T03:34:25;22.90;99.90
15765;DHT22;7983;50.744;7.086;2022-08-01T03:37:01;22.90;99.90
15765;DHT22;7983;50.744;7.086;2022-08-01T03:39:40;22.90;99.90
15765;DHT22;7983;50.744;7.086;2022-08-01T03:42:14;22.90;99.90
15765;DHT22;7983;50.744;7.086;2022-08-01T03:44:41;22.90;99.90
15765;DHT22;7983;50.744;7.086;2022-08-01T03:47:15;22.90;99.90
15765;DHT22;7983;50.744;7.086;2022-08-01T03:49:43;22.90;99.90
15765;DHT22;7983;50.744;7.086;2022-08-01T03:52:10;22.90;99.90
15765;DHT22;7983;50.744;7.086;2022-08-01T03:54:40;22.90;99.90
15765;DHT22;7983;50.744;7.086;2022-08-01T03:57:06;22.90;99.90
15765;DHT22;7983;50.744;7.086;2022-08-01T03:59:37;22.90;99.90
15765;DHT22;7983;50.744;7.086;2022-08-01T04:02:06;22.80;99.90
15765;DHT22;7983;50.744;7.086;2022-08-01T04:04:32;22.80;99.90
15765;DHT22;7983;50.744;7.086;2022-08-01T04:06:59;22.80;99.90
15765;DHT22;7983;50.744;7.086;2022-08-01T04:09:32;22.80;99.90
15765;DHT22;7983;50.744;7.086;2022-08-01T04:11:59;22.80;99.90
15765;DHT22;7983;50.744;7.086;2022-08-01T04:14:26;22.80;99.90
15765;DHT22;7983;50.744;7.086;2022-08-01T04:16:55;22.80;99.90
15765;DHT22;7983;50.744;7.086;2022-08-01T04:19:20;22.80;99.90
15765;DHT22;7983;50.744;7.086;2022-08-01T04:21:47;22.80;99.90
15765;DHT22;7983;50.744;7.086;2022-08-01T04:24:15;22.80;99.90
15765;DHT22;7983;50.744;7.086;2022-08-01T04:26:45;22.80;99.90
15765;DHT22;7983;50.744;7.086;2022-08-01T04:29:12;22.80;99.90
15765;DHT22;7983;50.744;7.086;2022-08-01T04:31:42;22.80;99.90
15765;DHT22;7983;50.744;7.086;2022-08-01T04:34:09;22.70;99.90
15765;DHT22;7983;50.744;7.086;2022-08-01T04:36:42;22.80;99.90
15765;DHT22;7983;50.744;7.086;2022-08-01T04:39:10;22.80;99.90
15765;DHT22;7983;50.744;7.086;2022-08-01T04:41:37;22.80;99.90
15765;DHT22;7983;50.744;7.086;2022-08-01T04:44:06;22.80;99.90
15765;DHT22;7983;50.744;7.086;2022-08-01T04:46:33;22.80;99.90
15765;DHT22;7983;50.744;7.086;2022-08-01T04:48:59;22.80;99.90
15765;DHT22;7983;50.744;7.086;2022-08-01T04:51:28;22.90;99.90
15765;DHT22;7983;50.744;7.086;2022-08-01T04:53:53;22.90;99.90
15765;DHT22;7983;50.744;7.086;2022-08-01T04:56:20;22.90;99.90
15765;DHT22;7983;50.744;7.086;2022-08-01T04:58:48;22.90;99.90
15765;DHT22;7983;50.744;7.086;2022-08-01T05:01:33;22.90;99.90
15765;DHT22;7983;50.744;7.086;2022-08-01T05:03:59;22.90;99.90
15765;DHT22;7983;50.744;7.086;2022-08-01T05:06:25;22.90;99.90
15765;DHT22;7983;50.744;7.086;2022-08-01T05:08:50;22.90;99.90
15765;DHT22;7983;50.744;7.086;2022-08-01T05:11:16;22.90;99.90
15765;DHT22;7983;50.744;7.086;2022-08-01T05:13:44;22.90;99.90
15765;DHT22;7983;50.744;7.086;2022-08-01T05:16:12;22.90;99.90
15765;DHT22;7983;50.744;7.086;2022-08-01T05:18:44;23.00;99.90
15765;DHT22;7983;50.744;7.086;2022-08-01T05:21:14;23.00;99.90
15765;DHT22;7983;50.744;7.086;2022-08-01T05:23:40;23.00;99.90
15765;DHT22;7983;50.744;7.086;2022-08-01T05:26:06;23.00;99.90
15765;DHT22;7983;50.744;7.086;2022-08-01T05:28:31;23.00;99.90
15765;DHT22;7983;50.744;7.086;2022-08-01T05:30:57;23.00;99.90
15765;DHT22;7983;50.744;7.086;2022-08-01T05:33:24;23.00;99.90
15765;DHT22;7983;50.744;7.086;2022-08-01T05:35:57;23.00;99.90
15765;DHT22;7983;50.744;7.086;2022-08-01T05:38:25;23.10;99.90
15765;DHT22;7983;50.744;7.086;2022-08-01T05:40:53;23.00;99.90
15765;DHT22;7983;50.744;7.086;2022-08-01T05:43:18;23.10;99.90
15765;DHT22;7983;50.744;7.086;2022-08-01T05:45:44;23.10;99.90
15765;DHT22;7983;50.744;7.086;2022-08-01T05:48:16;23.10;99.90
15765;DHT22;7983;50.744;7.086;2022-08-01T05:50:44;23.10;99.90
15765;DHT22;7983;50.744;7.086;2022-08-01T05:53:12;23.00;99.90
15765;DHT22;7983;50.744;7.086;2022-08-01T05:55:38;23.00;99.90
15765;DHT22;7983;50.744;7.086;2022-08-01T05:58:05;23.00;99.90
15765;DHT22;7983;50.744;7.086;2022-08-01T06:00:34;23.00;99.90
15765;DHT22;7983;50.744;7.086;2022-08-01T06:02:59;23.00;99.90
15765;DHT22;7983;50.744;7.086;2022-08-01T06:05:25;23.00;99.90
15765;DHT22;7983;50.744;7.086;2022-08-01T06:07:50;23.00;99.90
15765;DHT22;7983;50.744;7.086;2022-08-01T06:10:19;23.00;99.90
15765;DHT22;7983;50.744;7.086;2022-08-01T06:12:47;23.00;99.90
15765;DHT22;7983;50.744;7.086;2022-08-01T06:15:13;23.00;99.90
15765;DHT22;7983;50.744;7.086;2022-08-01T06:17:43;23.00;99.90
15765;DHT22;7983;50.744;7.086;2022-08-01T06:20:14;23.00;99.90
15765;DHT22;7983;50.744;7.086;2022-08-01T06:22:39;23.00;99.90
15765;DHT22;7983;50.744;7.086;2022-08-01T06:25:05;23.00;99.90
15765;DHT22;7983;50.744;7.086;2022-08-01T06:27:34;23.00;99.90
15765;DHT22;7983;50.744;7.086;2022-08-01T06:30:00;23.00;99.90
15765;DHT22;7983;50.744;7.086;2022-08-01T06:32:26;23.00;99.90
15765;DHT22;7983;50.744;7.086;2022-08-01T06:34:52;23.10;99.90
15765;DHT22;7983;50.744;7.086;2022-08-01T06:37:18;23.10;99.90
15765;DHT22;7983;50.744;7.086;2022-08-01T06:39:43;23.10;99.90
15765;DHT22;7983;50.744;7.086;2022-08-01T06:42:11;23.20;99.90
15765;DHT22;7983;50.744;7.086;2022-08-01T06:44:37;23.20;99.90
15765;DHT22;7983;50.744;7.086;2022-08-01T06:47:02;23.20;99.90
15765;DHT22;7983;50.744;7.086;2022-08-01T06:49:28;23.20;99.90
15765;DHT22;7983;50.744;7.086;2022-08-01T06:51:56;23.30;99.90
15765;DHT22;7983;50.744;7.086;2022-08-01T06:54:21;23.30;99.90
15765;DHT22;7983;50.744;7.086;2022-08-01T06:56:49;23.30;99.90
15765;DHT22;7983;50.744;7.086;2022-08-01T06:59:17;23.30;99.90
15765;DHT22;7983;50.744;7.086;2022-08-01T07:01:45;23.40;99.90
15765;DHT22;7983;50.744;7.086;2022-08-01T07:04:11;23.40;99.90
15765;DHT22;7983;50.744;7.086;2022-08-01T07:06:37;23.40;99.90
15765;DHT22;7983;50.744;7.086;2022-08-01T07:09:04;23.40;99.90
15765;DHT22;7983;50.744;7.086;2022-08-01T07:11:32;23.50;99.90
15765;DHT22;7983;50.744;7.086;2022-08-01T07:13:58;23.50;99.90
15765;DHT22;7983;50.744;7.086;2022-08-01T07:16:24;23.60;99.90
15765;DHT22;7983;50.744;7.086;2022-08-01T07:18:50;23.60;99.90
15765;DHT22;7983;50.744;7.086;2022-08-01T07:21:18;23.60;99.90
15765;DHT22;7983;50.744;7.086;2022-08-01T07:23:43;23.60;99.90
15765;DHT22;7983;50.744;7.086;2022-08-01T07:26:11;23.60;99.90
15765;DHT22;7983;50.744;7.086;2022-08-01T07:28:38;23.70;99.90
15765;DHT22;7983;50.744;7.086;2022-08-01T07:31:04;23.60;99.90
15765;DHT22;7983;50.744;7.086;2022-08-01T07:33:32;23.70;99.90
15765;DHT22;7983;50.744;7.086;2022-08-01T07:36:02;23.60;99.90
15765;DHT22;7983;50.744;7.086;2022-08-01T07:38:30;23.60;99.90
15765;DHT22;7983;50.744;7.086;2022-08-01T07:40:56;23.70;99.90
15765;DHT22;7983;50.744;7.086;2022-08-01T07:43:22;23.70;99.90
15765;DHT22;7983;50.744;7.086;2022-08-01T07:45:47;23.60;99.90
15765;DHT22;7983;50.744;7.086;2022-08-01T07:48:13;23.70;99.90
15765;DHT22;7983;50.744;7.086;2022-08-01T07:50:41;23.80;99.90
15765;DHT22;7983;50.744;7.086;2022-08-01T07:53:07;23.90;99.90
15765;DHT22;7983;50.744;7.086;2022-08-01T07:55:32;24.00;99.90
15765;DHT22;7983;50.744;7.086;2022-08-01T07:57:58;24.10;99.90
15765;DHT22;7983;50.744;7.086;2022-08-01T08:00:24;24.20;99.90
15765;DHT22;7983;50.744;7.086;2022-08-01T08:02:52;24.30;99.90
15765;DHT22;7983;50.744;7.086;2022-08-01T08:05:19;24.30;99.90
15765;DHT22;7983;50.744;7.086;2022-08-01T08:07:44;24.30;99.90
15765;DHT22;7983;50.744;7.086;2022-08-01T08:10:12;24.30;99.90
15765;DHT22;7983;50.744;7.086;2022-08-01T08:12:43;24.30;99.90
15765;DHT22;7983;50.744;7.086;2022-08-01T08:15:11;24.40;99.90
15765;DHT22;7983;50.744;7.086;2022-08-01T08:17:39;24.40;99.90
15765;DHT22;7983;50.744;7.086;2022-08-01T08:20:06;24.40;99.90
15765;DHT22;7983;50.744;7.086;2022-08-01T08:22:35;24.40;99.90
15765;DHT22;7983;50.744;7.086;2022-08-01T08:25:01;24.40;99.90
15765;DHT22;7983;50.744;7.086;2022-08-01T08:27:28;24.50;99.90
15765;DHT22;7983;50.744;7.086;2022-08-01T08:29:55;24.50;99.90
15765;DHT22;7983;50.744;7.086;2022-08-01T08:32:21;24.60;99.90
15765;DHT22;7983;50.744;7.086;2022-08-01T08:34:46;24.70;99.90
15765;DHT22;7983;50.744;7.086;2022-08-01T08:37:14;24.80;99.90
15765;DHT22;7983;50.744;7.086;2022-08-01T08:39:42;24.90;99.90
15765;DHT22;7983;50.744;7.086;2022-08-01T08:42:10;25.00;99.90
15765;DHT22;7983;50.744;7.086;2022-08-01T08:44:36;25.00;99.90
15765;DHT22;7983;50.744;7.086;2022-08-01T08:47:07;25.00;99.90
15765;DHT22;7983;50.744;7.086;2022-08-01T08:49:33;25.00;99.90
15765;DHT22;7983;50.744;7.086;2022-08-01T08:52:04;25.00;99.90
15765;DHT22;7983;50.744;7.086;2022-08-01T08:54:32;25.10;99.90
15765;DHT22;7983;50.744;7.086;2022-08-01T08:57:01;25.10;99.90
15765;DHT22;7983;50.744;7.086;2022-08-01T08:59:27;25.10;99.90
15765;DHT22;7983;50.744;7.086;2022-08-01T09:01:57;25.20;99.90
15765;DHT22;7983;50.744;7.086;2022-08-01T09:04:26;25.20;99.90
15765;DHT22;7983;50.744;7.086;2022-08-01T09:06:52;25.20;99.90
15765;DHT22;7983;50.744;7.086;2022-08-01T09:09:20;25.20;99.90
15765;DHT22;7983;50.744;7.086;2022-08-01T09:11:46;25.20;99.90
15765;DHT22;7983;50.744;7.086;2022-08-01T09:14:17;25.30;99.90
15765;DHT22;7983;50.744;7.086;2022-08-01T09:17:07;25.40;99.90
15765;DHT22;7983;50.744;7.086;2022-08-01T09:19:38;25.50;99.90
15765;DHT22;7983;50.744;7.086;2022-08-01T09:22:09;25.60;99.90
15765;DHT22;7983;50.744;7.086;2022-08-01T09:24:37;25.70;99.90
15765;DHT22;7983;50.744;7.086;2022-08-01T09:27:23;25.70;99.90
15765;DHT22;7983;50.744;7.086;2022-08-01T09:29:53;25.70;99.90
15765;DHT22;7983;50.744;7.086;2022-08-01T09:32:22;25.70;99.90
15765;DHT22;7983;50.744;7.086;2022-08-01T09:34:48;25.70;99.90
15765;DHT22;7983;50.744;7.086;2022-08-01T09:37:14;25.80;99.90
15765;DHT22;7983;50.744;7.086;2022-08-01T09:39:54;25.90;99.90
15765;DHT22;7983;50.744;7.086;2022-08-01T09:42:27;26.10;99.90
15765;DHT22;7983;50.744;7.086;2022-08-01T09:44:55;26.20;99.90
15765;DHT22;7983;50.744;7.086;2022-08-01T09:47:21;26.40;99.90
15765;DHT22;7983;50.744;7.086;2022-08-01T09:49:55;26.50;99.90
15765;DHT22;7983;50.744;7.086;2022-08-01T09:52:27;26.50;99.90
15765;DHT22;7983;50.744;7.086;2022-08-01T09:57:21;26.50;99.90
15765;DHT22;7983;50.744;7.086;2022-08-01T09:59:49;26.60;99.90
15765;DHT22;7983;50.744;7.086;2022-08-01T10:02:36;26.60;99.90
15765;DHT22;7983;50.744;7.086;2022-08-01T10:05:07;26.70;99.90
15765;DHT22;7983;50.744;7.086;2022-08-01T10:07:55;26.80;99.90
15765;DHT22;7983;50.744;7.086;2022-08-01T10:10:23;26.80;99.90
15765;DHT22;7983;50.744;7.086;2022-08-01T10:12:52;26.80;99.90
15765;DHT22;7983;50.744;7.086;2022-08-01T10:15:18;26.90;99.90
15765;DHT22;7983;50.744;7.086;2022-08-01T10:18:07;27.00;99.90
15765;DHT22;7983;50.744;7.086;2022-08-01T10:20:34;27.00;99.90
15765;DHT22;7983;50.744;7.086;2022-08-01T10:23:03;27.10;99.90
15765;DHT22;7983;50.744;7.086;2022-08-01T10:25:36;27.30;99.90
15765;DHT22;7983;50.744;7.086;2022-08-01T10:28:17;27.40;99.90
15765;DHT22;7983;50.744;7.086;2022-08-01T10:30:44;27.60;99.90
15765;DHT22;7983;50.744;7.086;2022-08-01T10:33:11;27.70;99.90
15765;DHT22;7983;50.744;7.086;2022-08-01T10:35:38;27.80;99.90
15765;DHT22;7983;50.744;7.086;2022-08-01T10:38:09;27.90;99.90
15765;DHT22;7983;50.744;7.086;2022-08-01T10:40:38;27.90;99.90
15765;DHT22;7983;50.744;7.086;2022-08-01T10:43:05;27.90;99.90
15765;DHT22;7983;50.744;7.086;2022-08-01T10:45:30;27.80;99.90
15765;DHT22;7983;50.744;7.086;2022-08-01T10:48:18;27.70;99.90
15765;DHT22;7983;50.744;7.086;2022-08-01T10:50:48;27.50;99.90
15765;DHT22;7983;50.744;7.086;2022-08-01T10:53:22;27.50;99.90
15765;DHT22;7983;50.744;7.086;2022-08-01T10:58:31;27.50;99.90
15765;DHT22;7983;50.744;7.086;2022-08-01T11:09:15;28.30;99.90
15765;DHT22;7983;50.744;7.086;2022-08-01T11:20:15;29.40;99.60
15765;DHT22;7983;50.744;7.086;2022-08-01T11:28:23;29.40;98.70
15765;DHT22;7983;50.744;7.086;2022-08-01T11:30:53;29.20;98.50
15765;DHT22;7983;50.744;7.086;2022-08-01T11:38:48;29.20;98.70
15765;DHT22;7983;50.744;7.086;2022-08-01T11:44:09;29.60;98.80
15765;DHT22;7983;50.744;7.086;2022-08-01T11:49:32;29.70;95.20
15765;DHT22;7983;50.744;7.086;2022-08-01T11:52:17;29.60;96.20
15765;DHT22;7983;50.744;7.086;2022-08-01T11:57:27;29.10;95.90
15765;DHT22;7983;50.744;7.086;2022-08-01T11:59:59;28.80;95.60
15765;DHT22;7983;50.744;7.086;2022-08-01T12:02:27;28.50;95.60
15765;DHT22;7983;50.744;7.086;2022-08-01T12:05:08;28.30;95.70
15765;DHT22;7983;50.744;7.086;2022-08-01T12:07:36;28.10;95.60
15765;DHT22;7983;50.744;7.086;2022-08-01T12:12:32;27.80;96.20
15765;DHT22;7983;50.744;7.086;2022-08-01T12:15:01;27.70;96.60
15765;DHT22;7983;50.744;7.086;2022-08-01T12:17:35;27.80;96.70
15765;DHT22;7983;50.744;7.086;2022-08-01T12:20:04;27.80;96.50
15765;DHT22;7983;50.744;7.086;2022-08-01T12:22:30;27.90;96.70
15765;DHT22;7983;50.744;7.086;2022-08-01T12:24:56;27.90;96.80
15765;DHT22;7983;50.744;7.086;2022-08-01T12:27:30;28.00;96.90
15765;DHT22;7983;50.744;7.086;2022-08-01T12:30:01;28.10;97.10
15765;DHT22;7983;50.744;7.086;2022-08-01T12:32:32;28.10;97.00
15765;DHT22;7983;50.744;7.086;2022-08-01T12:35:22;28.20;97.00
15765;DHT22;7983;50.744;7.086;2022-08-01T12:37:59;28.30;96.40
15765;DHT22;7983;50.744;7.086;2022-08-01T12:40:36;28.40;96.50
15765;DHT22;7983;50.744;7.086;2022-08-01T12:43:08;28.40;96.10
15765;DHT22;7983;50.744;7.086;2022-08-01T12:45:42;28.40;96.30
15765;DHT22;7983;50.744;7.086;2022-08-01T12:48:13;28.40;96.00
15765;DHT22;7983;50.744;7.086;2022-08-01T12:50:42;28.50;96.30
15765;DHT22;7983;50.744;7.086;2022-08-01T12:53:08;28.50;96.40
15765;DHT22;7983;50.744;7.086;2022-08-01T12:58:14;28.70;95.40
15765;DHT22;7983;50.744;7.086;2022-08-01T13:00:42;28.80;95.40
15765;DHT22;7983;50.744;7.086;2022-08-01T13:08:11;28.60;93.90
15765;DHT22;7983;50.744;7.086;2022-08-01T13:10:41;28.60;94.20
15765;DHT22;7983;50.744;7.086;2022-08-01T13:13:10;28.60;93.90
15765;DHT22;7983;50.744;7.086;2022-08-01T13:15:39;28.60;93.90
15765;DHT22;7983;50.744;7.086;2022-08-01T13:18:29;28.80;93.50
15765;DHT22;7983;50.744;7.086;2022-08-01T13:21:17;28.90;93.30
15765;DHT22;7983;50.744;7.086;2022-08-01T13:24:11;29.00;93.20
15765;DHT22;7983;50.744;7.086;2022-08-01T13:26:49;29.10;92.70
15765;DHT22;7983;50.744;7.086;2022-08-01T13:29:19;29.00;92.20
15765;DHT22;7983;50.744;7.086;2022-08-01T13:31:46;29.00;92.10
15765;DHT22;7983;50.744;7.086;2022-08-01T13:34:12;29.00;92.30
15765;DHT22;7983;50.744;7.086;2022-08-01T13:36:39;29.00;92.00
15765;DHT22;7983;50.744;7.086;2022-08-01T13:39:07;29.10;92.00
15765;DHT22;7983;50.744;7.086;2022-08-01T13:41:54;29.00;91.80
15765;DHT22;7983;50.744;7.086;2022-08-01T13:44:22;29.00;91.40
15765;DHT22;7983;50.744;7.086;2022-08-01T13:46:47;28.90;91.40
15765;DHT22;7983;50.744;7.086;2022-08-01T13:49:13;28.80;91.40
15765;DHT22;7983;50.744;7.086;2022-08-01T13:51:41;28.70;91.30
15765;DHT22;7983;50.744;7.086;2022-08-01T13:54:07;28.60;91.30
15765;DHT22;7983;50.744;7.086;2022-08-01T13:56:33;28.50;91.40
15765;DHT22;7983;50.744;7.086;2022-08-01T13:58:59;28.50;91.60
15765;DHT22;7983;50.744;7.086;2022-08-01T14:01:27;28.50;91.70
15765;DHT22;7983;50.744;7.086;2022-08-01T14:03:53;28.50;91.50
15765;DHT22;7983;50.744;7.086;2022-08-01T14:06:19;28.50;91.60
15765;DHT22;7983;50.744;7.086;2022-08-01T14:08:48;28.50;91.10
15765;DHT22;7983;50.744;7.086;2022-08-01T14:11:14;28.50;91.20
15765;DHT22;7983;50.744;7.086;2022-08-01T14:13:41;28.40;90.50
15765;DHT22;7983;50.744;7.086;2022-08-01T14:16:08;28.40;90.20
15765;DHT22;7983;50.744;7.086;2022-08-01T14:18:33;28.30;90.20
15765;DHT22;7983;50.744;7.086;2022-08-01T14:20:59;28.20;90.10
15765;DHT22;7983;50.744;7.086;2022-08-01T14:23:25;28.20;89.80
15765;DHT22;7983;50.744;7.086;2022-08-01T14:25:51;28.10;88.80
15765;DHT22;7983;50.744;7.086;2022-08-01T14:28:17;28.10;89.30
15765;DHT22;7983;50.744;7.086;2022-08-01T14:30:46;28.10;89.50
15765;DHT22;7983;50.744;7.086;2022-08-01T14:33:14;28.10;89.40
15765;DHT22;7983;50.744;7.086;2022-08-01T14:35:42;28.10;88.60
15765;DHT22;7983;50.744;7.086;2022-08-01T14:38:10;28.10;89.10
15765;DHT22;7983;50.744;7.086;2022-08-01T14:40:38;28.10;88.70
15765;DHT22;7983;50.744;7.086;2022-08-01T14:43:06;28.10;87.90
15765;DHT22;7983;50.744;7.086;2022-08-01T14:45:32;28.10;88.30
15765;DHT22;7983;50.744;7.086;2022-08-01T14:48:02;28.10;88.10
15765;DHT22;7983;50.744;7.086;2022-08-01T14:50:28;28.10;87.90
15765;DHT22;7983;50.744;7.086;2022-08-01T14:52:54;28.20;88.50
15765;DHT22;7983;50.744;7.086;2022-08-01T14:55:20;28.20;88.30
15765;DHT22;7983;50.744;7.086;2022-08-01T14:57:51;28.10;88.20
15765;DHT22;7983;50.744;7.086;2022-08-01T15:00:17;28.20;88.30
15765;DHT22;7983;50.744;7.086;2022-08-01T15:02:43;28.20;88.60
15765;DHT22;7983;50.744;7.086;2022-08-01T15:05:11;28.30;88.80
15765;DHT22;7983;50.744;7.086;2022-08-01T15:07:39;28.30;88.50
15765;DHT22;7983;50.744;7.086;2022-08-01T15:10:05;28.30;88.20
15765;DHT22;7983;50.744;7.086;2022-08-01T15:12:31;28.40;87.20
15765;DHT22;7983;50.744;7.086;2022-08-01T15:15:02;28.40;87.20
15765;DHT22;7983;50.744;7.086;2022-08-01T15:17:29;28.40;87.20
15765;DHT22;7983;50.744;7.086;2022-08-01T15:19:57;28.40;87.40
15765;DHT22;7983;50.744;7.086;2022-08-01T15:22:24;28.50;86.90
15765;DHT22;7983;50.744;7.086;2022-08-01T15:24:56;28.50;87.00
15765;DHT22;7983;50.744;7.086;2022-08-01T15:27:26;28.70;87.20
15765;DHT22;7983;50.744;7.086;2022-08-01T15:29:54;28.80;86.80
15765;DHT22;7983;50.744;7.086;2022-08-01T15:32:20;28.90;86.50
15765;DHT22;7983;50.744;7.086;2022-08-01T15:34:49;29.00;86.80
15765;DHT22;7983;50.744;7.086;2022-08-01T15:37:15;29.10;86.10
15765;DHT22;7983;50.744;7.086;2022-08-01T15:39:41;29.10;85.50
15765;DHT22;7983;50.744;7.086;2022-08-01T15:42:12;29.10;85.10
15765;DHT22;7983;50.744;7.086;2022-08-01T15:44:40;29.10;84.50
15765;DHT22;7983;50.744;7.086;2022-08-01T15:47:07;29.10;84.10
15765;DHT22;7983;50.744;7.086;2022-08-01T15:49:34;29.00;82.40
15765;DHT22;7983;50.744;7.086;2022-08-01T15:52:04;29.00;82.00
15765;DHT22;7983;50.744;7.086;2022-08-01T15:54:29;28.90;81.20
15765;DHT22;7983;50.744;7.086;2022-08-01T15:56:55;28.90;80.50
15765;DHT22;7983;50.744;7.086;2022-08-01T15:59:21;28.80;80.10
15765;DHT22;7983;50.744;7.086;2022-08-01T16:01:47;28.60;79.80
15765;DHT22;7983;50.744;7.086;2022-08-01T16:04:18;28.50;79.80
15765;DHT22;7983;50.744;7.086;2022-08-01T16:06:45;28.40;78.80
15765;DHT22;7983;50.744;7.086;2022-08-01T16:09:11;28.30;79.70
15765;DHT22;7983;50.744;7.086;2022-08-01T16:11:37;28.30;79.20
15765;DHT22;7983;50.744;7.086;2022-08-01T16:14:03;28.20;79.60
15765;DHT22;7983;50.744;7.086;2022-08-01T16:16:31;28.20;79.10
15765;DHT22;7983;50.744;7.086;2022-08-01T16:18:57;28.20;78.40
15765;DHT22;7983;50.744;7.086;2022-08-01T16:21:23;28.20;78.70
15765;DHT22;7983;50.744;7.086;2022-08-01T16:23:50;28.20;79.80
15765;DHT22;7983;50.744;7.086;2022-08-01T16:26:15;28.20;79.10
15765;DHT22;7983;50.744;7.086;2022-08-01T16:28:44;28.20;79.30
15765;DHT22;7983;50.744;7.086;2022-08-01T16:31:18;28.20;79.00
15765;DHT22;7983;50.744;7.086;2022-08-01T16:33:44;28.20;79.60
15765;DHT22;7983;50.744;7.086;2022-08-01T16:36:10;28.30;79.80
15765;DHT22;7983;50.744;7.086;2022-08-01T16:38:36;28.30;80.10
15765;DHT22;7983;50.744;7.086;2022-08-01T16:41:04;28.30;80.00
15765;DHT22;7983;50.744;7.086;2022-08-01T16:43:32;28.30;79.60
15765;DHT22;7983;50.744;7.086;2022-08-01T16:45:57;28.30;79.80
15765;DHT22;7983;50.744;7.086;2022-08-01T16:48:23;28.20;80.00
15765;DHT22;7983;50.744;7.086;2022-08-01T16:50:50;28.10;79.90
15765;DHT22;7983;50.744;7.086;2022-08-01T16:53:18;28.10;80.20
15765;DHT22;7983;50.744;7.086;2022-08-01T16:55:44;28.00;80.40
15765;DHT22;7983;50.744;7.086;2022-08-01T16:58:12;28.00;80.80
15765;DHT22;7983;50.744;7.086;2022-08-01T17:00:40;27.90;80.90
15765;DHT22;7983;50.744;7.086;2022-08-01T17:03:10;27.90;81.20